Aeroporto :
LOGIN :

Iscrizione | Disclaimer

   EN    FR    IT 

 










Sommario :    VFR   VFR Marginale   IFR   IFR Intensivo   IFR Molto Intensivo
Visibilità : 
Base nubi : 
>= 8 km
>= 3000ft
5 / 8 km
1000 / 3000 ft
1500m / 5 km
500 / 1000 ft
800 / 1500m
200 / 500 ft
< 800m
< 200 ft
Simboli :   Temporali  Nebbia  Neve Forte  Precipitazioni Forti  Vento > 20 kt
SIGMETs :   Varie  Temporali  Ghiacco  Turbolenza  Onda orograficha  Ceneri Vulcaniche






- Altitudine del aeroporto : 512 ft
- Codice IATA : URO


LFOP - Rouen Vallée de Seine

ULTIMO METAR :
  • 312000Z AUTO 05006KT CAVOK 17/07 Q1019 NOSIG

METARs OBSOLETI :
  • 311930Z AUTO 05006KT CAVOK 18/07 Q1019 NOSIG
  • 311900Z AUTO 07006KT CAVOK 20/06 Q1019 NOSIG
  • 311830Z AUTO 06010KT CAVOK 21/05 Q1018 NOSIG
  • 311800Z AUTO 05008KT CAVOK 22/06 Q1018 NOSIG
  • 311730Z AUTO 08011KT CAVOK 21/05 Q1018 NOSIG

TAF TAF LFOP
Valido dal 31 a 18 ore il 01 a 18 ore UTC


311700Z 3118/0118 06010KT CAVOK
ATIS : +33 2 35 80 80 34
Met : +33 2 32 86 52 80



MetMap, La meteo Aeronautica in un colpo d'occhio ! - Copyright ORBIFLY Dicembre 2007 - Disclaimer

ORBIFLY MET'MAP TEAM :

Programmazione e sviluppo : Alexandra Zaïnal
Concezione : Baudouin d'Aumeries
Aiuto per la programmazione : Marc-Olivier Méhu
Supporto tecnico e logistico : Manuel Goepfert
Aiuto per la traduzione : Arnaldo La Scala

Contatto : metmap@orbifly.com




FONTI E CREDITI :

   NOAA